This is the latest recevied weather packets stored in our database for station/object DG7YEO-13. If no packets are shown the sender has not sent any weather packets the latest 1 day(s).
| Time | Temp. | Humidity | Pressure | Rain* | Wind** | Luminosity | Snow |
|---|---|---|---|---|---|---|---|
| 1836274799 | 13.89° C | 91% | 1015.2 hPa | 0 mm | 0 m/s | - | - |
| 1836273899 | 13.89° C | 91% | 1015.3 hPa | 0 mm | 0 m/s | - | - |
| 1778028425 | 10° C | 96% | 1006.1 hPa | 3.05 mm | 0 m/s | - | - |
| 1778027525 | 10.56° C | 96% | 1006.1 hPa | 2.54 mm | 0.45 m/s, 5° | - | - |
| 1778026625 | 10.56° C | 96% | 1006.3 hPa | 3.05 mm | 0.45 m/s, 318° | - | - |
| 1778025725 | 10.56° C | 96% | 1006.3 hPa | 2.79 mm | 0 m/s | - | - |
| 1778024825 | 10.56° C | 96% | 1006.6 hPa | 2.79 mm | 0.45 m/s, 294° | - | - |
| 1778023925 | 10.56° C | 96% | 1006.6 hPa | 2.29 mm | 0 m/s | - | - |
| 1778023024 | 11.11° C | 96% | 1006.7 hPa | 1.52 mm | 0.45 m/s, 299° | - | - |
| 1778022125 | 11.11° C | 96% | 1006.8 hPa | 1.27 mm | 0.45 m/s, 331° | - | - |
| 1778021225 | 11.11° C | 96% | 1006.8 hPa | 0.76 mm | 0.45 m/s, 318° | - | - |
| 1778020325 | 11.11° C | 96% | 1006.9 hPa | 0.51 mm | 0 m/s | - | - |
| 1778019425 | 11.11° C | 96% | 1007 hPa | 0 mm | 0 m/s | - | - |
| 1778018525 | 11.11° C | 95% | 1007.1 hPa | 0 mm | 0.45 m/s, 309° | - | - |
| 1778017625 | 11.11° C | 95% | 1007.3 hPa | 0 mm | 0 m/s | - | - |
| 1778016725 | 11.11° C | 95% | 1007.4 hPa | 0 mm | 0 m/s | - | - |
| 1778015825 | 11.11° C | 95% | 1007.5 hPa | 0 mm | 0 m/s | - | - |
| 1778014928 | 11.11° C | 95% | 1007.6 hPa | 0 mm | 0 m/s | - | - |
| 1778014025 | 11.11° C | 95% | 1007.7 hPa | 0 mm | 0 m/s | - | - |
| 1778013125 | 11.11° C | 95% | 1007.7 hPa | 0 mm | 0.45 m/s, 327° | - | - |
| 1778012225 | 11.67° C | 94% | 1007.8 hPa | 0 mm | 0 m/s | - | - |
| 1778011325 | 11.67° C | 94% | 1007.8 hPa | 0 mm | 0 m/s | - | - |
| 1778010425 | 11.67° C | 94% | 1007.7 hPa | 0 mm | 0 m/s | - | - |
| 1778009525 | 11.67° C | 93% | 1007.8 hPa | 0 mm | 0.45 m/s, 303° | - | - |
| 1778008625 | 11.67° C | 93% | 1007.7 hPa | 0 mm | 0.45 m/s, 11° | - | - |
* Rain latest hour (hover to see other rain measurements)
** Current wind speed in m/s (hover to see current wind gust speed)